メインページ
METAR-TAF:

METAR-TAF

空港 :

グアテマラシティ, グアテマラ

ラ・アウロラ国際空港

緯度: 14-35N, 経度: 090-31W, 海抜: 1489m

現時点の気象観測

当レポートは14分前の06:00(UTC)に作成
の風 4kt
気温 17°C
湿度 82%
気圧 1024 hPa
視程: 7000m
高度1500ftの雲は散在している
高度8000ftの雲は散在している
高度20000ftの雲はほとんどない
煙霧

METAR: MGGT 280600Z 19004KT 7000 SCT015 SCT080 17/14 Q1024 A3024 FEW200 HZ

時間: 00:14 (06:14 UTC)

予報

予報は28日の 06時(UTC)から 29日の 06時(UTC)まで有効
の風 6kt
視程10km以上
高度1600ftの雲は散在している
28日の 08時(UTC)から 28日の 14時(UTC)まで一時的に
視程: 3000m
高度800ftの雲は散在している
28日の 14時(UTC)から 28日の 16時(UTC)まで徐々に
の風 8kt
視程: 8000m
高度1800ftの雲はほとんどない
28日の 20時(UTC)から 28日の 22時(UTC)まで徐々に
高度2000ftの雲はほとんどない
29日の 01時(UTC)から 29日の 03時(UTC)まで徐々に
変向風 3kt
高度1600ftの雲はほとんどない

TAF: MGGT 2806/2906 36006KT 9999 SCT016 TX28/2820Z TN13/2812Z TEMPO 2808/2814 3000 BR SCT008 BECMG 2814/2816 18008KT 8000 FEW018 BECMG 2820/2822 FEW020 BECMG 2901/2903 VRB03KT FEW016

4,000以上の空港の気象観測と天気予報(METAR報とTAF報)

利用可能な観測所は地図上に黄色い丸と赤い丸で示す。

丸の上にカーソルを重ねると観測所名を参照できる。

次にクリックすると気象観測と天気予報を参照できる。

マップの切り替え:黒色「×」印の緑ボタンをクリックして拡大、「-」印の緑ボタンをクリックして縮小、緑色の三角印をクリックして隣りの地図に切り替え


METAR-TAF: